Time;durP1;ratioP1;P1;durP2;ratioP2;P2;SDS_P1;SDS_P2;PMS_P1;PMS_P2;Temp;Humidity;BMP_temperature;BMP_pressure;BME280_temperature;BME280_humidity;BME280_pressure;Samples;Min_cycle;Max_cycle;Signal;HPM_P1;HPM_P2
2021/06/16 00:00:56;;;;;;;6.80;4.83;;;;;;;22.11;52.97;98018.97;8448209;28;20198;-67
2021/06/16 00:05:00;;;;;;;7.73;5.37;;;;;;;22.07;52.72;98010.50;8416627;28;20220;-67
2021/06/16 00:09:04;;;;;;;8.67;5.00;;;;;;;22.02;52.73;98016.16;8416764;28;20231;-67
2021/06/16 00:13:07;;;;;;;7.27;5.30;;;;;;;21.99;52.86;98016.47;8416967;28;20194;-67
2021/06/16 00:17:10;;;;;;;8.77;5.30;;;;;;;21.91;53.32;98013.66;8417222;28;20498;-67
2021/06/16 00:21:15;;;;;;;8.60;4.90;;;;;;;21.95;53.41;98016.88;8416944;28;20262;-67
2021/06/16 00:25:18;;;;;;;9.30;5.03;;;;;;;21.82;53.59;98017.16;8416987;28;20241;-67
2021/06/16 00:29:21;;;;;;;5.67;4.77;;;;;;;21.79;53.79;98012.97;8416672;28;20201;-67
2021/06/16 00:33:23;;;;;;;9.73;5.10;;;;;;;21.82;53.32;98022.44;8406110;28;20191;-67
2021/06/16 00:37:28;;;;;;;5.73;4.40;;;;;;;21.81;53.66;98015.47;8399205;28;20505;-67
2021/06/16 00:41:30;;;;;;;9.80;4.97;;;;;;;21.75;53.71;98019.50;8399082;28;20193;-67
2021/06/16 00:45:33;;;;;;;7.83;5.20;;;;;;;21.65;53.89;98013.41;8408114;28;20526;-68
2021/06/16 00:49:36;;;;;;;7.97;5.10;;;;;;;21.70;53.65;98012.97;8415989;28;20203;-67
2021/06/16 00:53:40;;;;;;;13.97;5.43;;;;;;;21.71;53.33;98014.66;8415658;28;20216;-68
2021/06/16 00:57:43;;;;;;;6.80;5.33;;;;;;;21.55;53.98;98020.44;8415559;28;20206;-67
2021/06/16 01:01:48;;;;;;;9.60;5.87;;;;;;;21.62;53.91;98029.47;8415832;28;20211;-67
2021/06/16 01:05:55;;;;;;;7.60;5.20;;;;;;;21.62;53.30;98019.75;8415324;28;20235;-67
2021/06/16 01:10:02;;;;;;;7.77;5.77;;;;;;;21.59;53.59;98027.94;8415423;28;20230;-67
2021/06/16 01:14:11;;;;;;;6.30;5.30;;;;;;;21.52;54.04;98024.19;8415496;28;20201;-67
2021/06/16 01:18:15;;;;;;;8.60;5.73;;;;;;;21.44;54.28;98027.50;8414593;28;20271;-67
2021/06/16 01:22:30;;;;;;;8.93;5.93;;;;;;;21.44;54.26;98024.88;8415211;28;20372;-67
2021/06/16 01:26:38;;;;;;;8.60;5.33;;;;;;;21.40;54.59;98022.59;8415721;28;20210;-67
2021/06/16 01:30:43;;;;;;;6.60;5.47;;;;;;;21.41;54.61;98025.09;8414913;28;20207;-68
2021/06/16 01:34:46;;;;;;;6.67;5.60;;;;;;;21.41;54.64;98011.91;8415083;28;20374;-67
2021/06/16 01:38:49;;;;;;;13.07;6.10;;;;;;;21.31;54.97;98013.72;8414888;28;20207;-67
2021/06/16 01:42:54;;;;;;;8.13;6.00;;;;;;;21.24;56.08;98012.56;8415053;28;20487;-68
2021/06/16 01:46:57;;;;;;;13.00;6.00;;;;;;;21.23;55.77;98018.81;8448152;28;20232;-67
2021/06/16 01:51:00;;;;;;;8.77;6.10;;;;;;;21.24;55.73;98018.66;8448418;28;20198;-67
2021/06/16 01:55:05;;;;;;;8.33;5.63;;;;;;;21.17;56.03;98021.97;8448013;28;20205;-67
2021/06/16 01:59:10;;;;;;;7.97;5.50;;;;;;;21.17;55.96;98014.06;8448022;28;20226;-67
2021/06/16 02:03:13;;;;;;;7.20;5.87;;;;;;;21.13;55.98;98013.50;8447990;28;20390;-67
2021/06/16 02:07:19;;;;;;;7.87;5.87;;;;;;;21.04;55.91;98012.50;8447697;28;20230;-67
2021/06/16 02:11:23;;;;;;;9.53;5.57;;;;;;;21.02;56.08;98011.81;8447682;28;20228;-67
2021/06/16 02:15:31;;;;;;;7.27;5.83;;;;;;;20.98;55.97;98004.28;8447842;28;20203;-67
2021/06/16 02:19:34;;;;;;;8.23;5.30;;;;;;;20.93;56.14;98006.50;8430133;28;20200;-67
2021/06/16 02:23:37;;;;;;;7.50;5.57;;;;;;;20.91;55.97;97997.91;8447831;28;20199;-67
2021/06/16 02:27:40;;;;;;;10.07;5.40;;;;;;;20.86;56.05;97993.84;8448378;28;20226;-67
2021/06/16 02:31:45;;;;;;;9.80;5.60;;;;;;;20.78;56.10;97995.50;8454321;28;20368;-67
2021/06/16 02:35:48;;;;;;;8.77;5.50;;;;;;;20.75;55.94;97986.06;8453857;28;20510;-67
2021/06/16 02:39:55;;;;;;;8.23;5.90;;;;;;;20.72;56.18;97990.78;8453947;28;20199;-67
2021/06/16 02:43:58;;;;;;;8.50;5.57;;;;;;;20.79;55.93;98000.63;8453715;28;20199;-67
2021/06/16 02:48:03;;;;;;;8.27;6.10;;;;;;;20.69;56.38;97986.59;8453520;28;20312;-67
2021/06/16 02:52:09;;;;;;;8.70;6.33;;;;;;;20.67;56.60;97988.50;8453360;28;20404;-67
2021/06/16 02:56:13;;;;;;;6.80;6.07;;;;;;;20.71;56.30;97989.91;8453636;28;20218;-67
2021/06/16 03:00:16;;;;;;;9.97;6.77;;;;;;;20.62;56.57;97990.69;8453119;28;20513;-67
2021/06/16 03:04:21;;;;;;;9.87;6.33;;;;;;;20.64;56.27;97994.06;8452912;28;20200;-67
2021/06/16 03:08:25;;;;;;;7.97;6.37;;;;;;;20.66;56.02;97992.94;8452902;28;20490;-67
2021/06/16 03:12:28;;;;;;;9.07;6.60;;;;;;;20.63;56.50;97989.75;8452617;28;20209;-67
2021/06/16 03:16:33;;;;;;;10.00;6.37;;;;;;;20.57;56.78;97991.06;8452735;28;20203;-67
2021/06/16 03:20:39;;;;;;;6.90;5.73;;;;;;;20.65;56.50;97993.91;8452273;28;20206;-67
2021/06/16 03:24:44;;;;;;;10.33;6.90;;;;;;;20.59;56.94;97994.41;8452503;28;20202;-67
2021/06/16 03:28:48;;;;;;;10.40;7.03;;;;;;;20.56;57.26;97999.09;8452511;28;20235;-68
2021/06/16 03:32:53;;;;;;;9.00;7.30;;;;;;;20.56;56.93;97997.31;8452281;28;20344;-67
2021/06/16 03:37:00;;;;;;;13.60;7.33;;;;;;;20.56;56.99;97999.09;8452104;28;20206;-67
2021/06/16 03:41:04;;;;;;;8.63;6.87;;;;;;;20.53;57.01;98002.00;8451897;28;20205;-67
2021/06/16 03:45:08;;;;;;;10.00;7.07;;;;;;;20.52;56.83;97995.88;8451842;28;20198;-67
2021/06/16 03:49:12;;;;;;;8.23;6.97;;;;;;;20.49;56.82;97996.97;8451887;28;20203;-67
2021/06/16 03:53:17;;;;;;;9.27;6.30;;;;;;;20.55;57.04;97998.25;8451486;28;20206;-67
2021/06/16 03:57:20;;;;;;;10.00;6.93;;;;;;;20.57;56.46;97998.13;8450890;28;20206;-67
2021/06/16 04:01:23;;;;;;;12.40;7.00;;;;;;;20.58;56.89;97990.13;8450944;28;20217;-67
2021/06/16 04:05:26;;;;;;;10.57;7.23;;;;;;;20.69;57.27;97995.34;8450939;28;20238;-67
2021/06/16 04:09:31;;;;;;;9.13;7.87;;;;;;;20.71;57.48;97995.19;8450850;28;20414;-67
2021/06/16 04:13:33;;;;;;;10.20;7.90;;;;;;;20.78;56.68;97996.31;8450725;28;20221;-67
2021/06/16 04:17:36;;;;;;;12.20;8.43;;;;;;;20.85;57.10;97994.00;8450560;28;20211;-67
2021/06/16 04:21:40;;;;;;;11.37;7.63;;;;;;;20.88;57.32;97991.09;8450389;28;20203;-67
2021/06/16 04:25:44;;;;;;;11.73;7.80;;;;;;;20.94;57.26;97982.66;8450380;28;20234;-67
2021/06/16 04:29:47;;;;;;;12.17;7.80;;;;;;;20.93;57.37;97975.75;8450408;28;20206;-67
2021/06/16 04:33:50;;;;;;;13.77;8.40;;;;;;;21.05;57.37;97973.84;8449939;28;20200;-67
2021/06/16 04:37:52;;;;;;;9.67;7.40;;;;;;;21.12;57.16;97980.25;8449824;28;20210;-67
2021/06/16 04:41:56;;;;;;;12.10;7.73;;;;;;;21.12;57.74;97976.78;8449854;28;20498;-67
2021/06/16 04:45:59;;;;;;;10.00;6.70;;;;;;;21.40;57.00;97977.81;8449544;28;20523;-67
2021/06/16 04:50:05;;;;;;;11.50;7.43;;;;;;;21.65;56.04;97976.50;8422062;28;20262;-68
2021/06/16 04:54:11;;;;;;;12.17;8.07;;;;;;;21.68;56.67;97986.75;8415802;28;20188;-67
2021/06/16 04:58:16;;;;;;;12.90;8.83;;;;;;;21.78;56.37;97981.47;8416030;28;20207;-67
2021/06/16 05:02:18;;;;;;;11.53;7.77;;;;;;;21.90;56.19;97980.38;8415677;28;20510;-67
2021/06/16 05:06:21;;;;;;;12.13;7.90;;;;;;;21.98;56.09;97975.25;8415452;28;20234;-67
2021/06/16 05:10:24;;;;;;;13.17;9.50;;;;;;;21.71;57.32;97977.75;8415406;28;20230;-67
2021/06/16 05:14:28;;;;;;;17.03;9.53;;;;;;;21.76;57.13;97978.16;8415492;28;20199;-68
2021/06/16 05:18:32;;;;;;;15.20;8.70;;;;;;;21.75;57.00;97974.69;8415318;28;20200;-68
2021/06/16 05:22:35;;;;;;;12.17;8.60;;;;;;;21.74;57.36;97974.81;8409089;28;20196;-68
2021/06/16 05:26:38;;;;;;;10.03;7.50;;;;;;;21.84;56.46;97975.69;8385857;28;20227;-68
2021/06/16 05:30:42;;;;;;;13.60;7.77;;;;;;;21.81;54.97;97979.41;8381924;28;20211;-67
2021/06/16 05:34:45;;;;;;;10.77;7.37;;;;;;;21.98;54.50;97975.25;8381555;28;20200;-68
2021/06/16 05:38:48;;;;;;;13.70;7.53;;;;;;;21.78;55.09;97978.84;8382015;28;20206;-67
2021/06/16 05:42:51;;;;;;;11.40;7.53;;;;;;;21.96;54.42;97971.09;8381621;28;20199;-67
2021/06/16 05:46:55;;;;;;;12.13;7.87;;;;;;;22.00;54.14;97975.09;8381906;28;20229;-67
2021/06/16 05:50:58;;;;;;;10.10;7.83;;;;;;;22.10;53.87;97972.44;8381509;28;20219;-67
2021/06/16 05:55:06;;;;;;;11.60;7.80;;;;;;;21.97;54.52;97968.31;8381448;28;20269;-67
2021/06/16 05:59:09;;;;;;;11.63;7.80;;;;;;;22.25;54.11;97973.72;8381502;28;20205;-67
2021/06/16 06:03:13;;;;;;;10.93;7.70;;;;;;;22.46;53.87;97973.53;8384730;28;20201;-67
2021/06/16 06:07:16;;;;;;;10.50;7.27;;;;;;;22.49;53.24;97969.78;8387973;28;20238;-67
2021/06/16 06:11:19;;;;;;;10.57;7.77;;;;;;;22.59;53.40;97973.22;8387927;28;20526;-67
2021/06/16 06:15:22;;;;;;;10.47;6.93;;;;;;;22.79;53.02;97969.53;8387586;28;20393;-67
2021/06/16 06:19:26;;;;;;;13.97;6.90;;;;;;;22.91;52.76;97967.53;8387593;28;20210;-67
2021/06/16 06:23:29;;;;;;;14.20;8.20;;;;;;;22.88;52.16;97969.63;8387473;28;20218;-67
2021/06/16 06:27:32;;;;;;;14.90;7.13;;;;;;;22.83;51.92;97968.28;8387359;28;20553;-67
2021/06/16 06:31:35;;;;;;;14.23;7.40;;;;;;;22.93;52.42;97962.94;8387434;28;20204;-67
2021/06/16 06:35:39;;;;;;;11.33;7.90;;;;;;;22.93;52.15;97959.47;8387032;28;20207;-67
2021/06/16 06:39:42;;;;;;;7.97;7.07;;;;;;;23.03;51.33;97976.94;8387009;28;20207;-67
2021/06/16 06:43:45;;;;;;;10.87;6.87;;;;;;;23.17;51.49;97973.00;8401743;28;20209;-67
2021/06/16 06:47:48;;;;;;;9.13;6.93;;;;;;;23.51;50.12;97963.59;8453451;28;20229;-67
2021/06/16 06:51:52;;;;;;;11.77;6.60;;;;;;;23.42;50.02;97973.28;8453645;28;20484;-67
2021/06/16 06:55:55;;;;;;;11.97;7.00;;;;;;;23.53;50.11;97973.06;8453605;28;20387;-67
2021/06/16 06:59:58;;;;;;;9.90;6.70;;;;;;;23.60;51.22;97970.63;8452992;28;20213;-66
2021/06/16 07:04:02;;;;;;;11.77;6.80;;;;;;;23.90;49.34;97966.00;8413716;28;20202;-66
2021/06/16 07:08:07;;;;;;;10.33;5.83;;;;;;;24.14;48.72;97960.91;8419184;28;20240;-65
2021/06/16 07:12:10;;;;;;;9.17;6.07;;;;;;;24.09;48.47;97957.06;8419409;28;20435;-65
2021/06/16 07:16:13;;;;;;;8.23;6.00;;;;;;;24.14;48.34;97955.59;8418704;28;20202;-65
2021/06/16 07:20:17;;;;;;;9.23;6.00;;;;;;;24.32;47.56;97952.09;8418857;28;20209;-65
2021/06/16 07:24:21;;;;;;;7.10;5.43;;;;;;;24.87;47.84;97956.22;8418676;28;20207;-65
2021/06/16 07:28:24;;;;;;;8.63;5.67;;;;;;;24.85;47.17;97951.06;8418523;28;20238;-65
2021/06/16 07:32:27;;;;;;;7.37;5.43;;;;;;;25.07;47.39;97952.31;8418370;28;20199;-65
2021/06/16 07:36:30;;;;;;;11.03;6.07;;;;;;;25.21;45.77;97955.31;8418162;28;20280;-66
2021/06/16 07:40:34;;;;;;;8.97;5.47;;;;;;;25.63;45.39;97952.66;8418162;28;20199;-65
2021/06/16 07:44:37;;;;;;;6.43;5.30;;;;;;;25.78;44.06;97957.28;8432888;28;20206;-65
2021/06/16 07:48:40;;;;;;;11.07;6.00;;;;;;;25.62;43.80;97960.75;8452008;28;20232;-65
2021/06/16 07:52:42;;;;;;;8.23;5.17;;;;;;;25.94;43.55;97955.50;8428988;28;20198;-65
2021/06/16 07:56:47;;;;;;;14.90;6.30;;;;;;;25.65;44.16;97963.91;8418075;28;20207;-66
2021/06/16 08:00:50;;;;;;;6.87;5.17;;;;;;;26.01;43.20;97958.34;8417505;28;20199;-63
2021/06/16 08:04:53;;;;;;;6.23;4.97;;;;;;;26.49;42.60;97959.25;8416361;28;20199;-64
2021/06/16 08:08:56;;;;;;;7.67;5.00;;;;;;;26.92;42.69;97959.00;8417212;28;20247;-64
2021/06/16 08:13:00;;;;;;;8.90;5.57;;;;;;;27.16;42.32;97958.06;8417808;28;20203;-64
2021/06/16 08:17:04;;;;;;;15.37;5.80;;;;;;;26.64;42.02;97958.59;8413308;28;20202;-63
2021/06/16 08:21:07;;;;;;;7.10;5.27;;;;;;;27.03;41.39;97955.94;8413195;28;20203;-63
2021/06/16 08:25:12;;;;;;;8.57;5.60;;;;;;;27.47;40.65;97957.25;8417107;28;20204;-63
2021/06/16 08:29:16;;;;;;;10.67;5.40;;;;;;;27.33;40.11;97958.00;8417023;28;20228;-63
2021/06/16 08:33:19;;;;;;;9.23;4.90;;;;;;;27.71;39.83;97955.44;8416583;28;20213;-64
2021/06/16 08:37:21;;;;;;;7.43;4.50;;;;;;;28.07;39.82;97951.19;8416591;28;20199;-64
2021/06/16 08:41:25;;;;;;;7.03;4.80;;;;;;;27.96;39.19;97948.13;8406029;28;20369;-64
2021/06/16 08:45:35;;;;;;;6.60;4.60;;;;;;;28.31;38.50;97951.13;8437883;28;20205;-63
2021/06/16 08:49:38;;;;;;;9.83;5.07;;;;;;;28.22;38.27;97950.41;8449859;28;20393;-63
2021/06/16 08:53:42;;;;;;;8.17;4.53;;;;;;;28.71;37.27;97949.91;8443275;28;20204;-66
2021/06/16 08:57:45;;;;;;;7.43;4.37;;;;;;;28.32;37.76;97950.94;8389889;28;20202;-64
2021/06/16 09:01:49;;;;;;;8.90;4.63;;;;;;;28.68;36.49;97944.94;8383086;28;20208;-73
2021/06/16 09:05:52;;;;;;;9.43;4.63;;;;;;;29.05;35.70;97944.00;8382553;28;20222;-69
2021/06/16 09:10:10;;;;;;;9.47;4.80;;;;;;;29.39;35.44;97934.56;8382665;28;20252;-72
2021/06/16 09:14:15;;;;;;;6.00;4.40;;;;;;;29.83;37.12;97930.06;8382956;28;20225;-71
2021/06/16 09:18:19;;;;;;;8.83;4.03;;;;;;;29.50;34.16;97937.75;8383067;28;20209;-71
2021/06/16 09:22:29;;;;;;;4.97;3.40;;;;;;;29.87;32.98;97936.69;8382566;28;20209;-70
2021/06/16 09:26:33;;;;;;;9.60;4.10;;;;;;;29.90;30.09;97930.97;8382430;28;20206;-71
2021/06/16 09:30:43;;;;;;;5.97;4.27;;;;;;;30.09;31.61;97926.81;8389353;28;20236;-71
2021/06/16 09:34:54;;;;;;;4.80;3.57;;;;;;;30.48;33.18;97924.63;8384029;28;20534;-72
2021/06/16 09:39:01;;;;;;;10.60;4.13;;;;;;;30.30;31.37;97931.28;8393261;28;20385;-75
2021/06/16 09:43:05;;;;;;;5.70;3.40;;;;;;;29.68;30.13;97934.63;8398515;28;20466;-75
2021/06/16 09:47:16;;;;;;;8.90;3.57;;;;;;;29.95;30.44;97931.22;8404418;28;20202;-74
2021/06/16 09:51:24;;;;;;;7.70;3.77;;;;;;;30.48;30.42;97930.81;8399879;28;20199;-73
2021/06/16 09:55:29;;;;;;;11.03;4.03;;;;;;;29.94;31.81;97931.41;8389848;28;20199;-73
2021/06/16 09:59:36;;;;;;;7.47;3.80;;;;;;;30.59;29.79;97932.09;8402544;28;20236;-73
2021/06/16 10:03:40;;;;;;;6.73;3.60;;;;;;;30.37;30.69;97921.50;8396175;28;20210;-73
2021/06/16 10:07:46;;;;;;;7.73;4.03;;;;;;;30.94;30.58;97926.78;8398069;28;20225;-74
2021/06/16 10:11:49;;;;;;;8.40;3.70;;;;;;;31.17;29.08;97923.75;8383917;28;20227;-72
2021/06/16 10:15:51;;;;;;;8.13;3.67;;;;;;;31.27;28.34;97923.38;8386715;28;20202;-72
2021/06/16 10:19:54;;;;;;;7.00;3.17;;;;;;;31.38;27.47;97915.59;8415731;28;20211;-73
2021/06/16 10:23:59;;;;;;;6.73;2.93;;;;;;;31.49;25.93;97916.88;8415200;28;20200;-73
2021/06/16 10:28:02;;;;;;;7.60;3.00;;;;;;;31.80;24.53;97917.31;8415057;28;20328;-74
2021/06/16 10:32:06;;;;;;;4.50;2.80;;;;;;;31.43;23.86;97914.16;8415170;28;20394;-72
2021/06/16 10:36:22;;;;;;;5.33;2.80;;;;;;;31.93;24.07;97902.06;8415653;28;20199;-72
2021/06/16 10:40:31;;;;;;;3.87;2.27;;;;;;;31.72;23.14;97899.59;8414957;28;20203;-74
2021/06/16 10:44:34;;;;;;;6.43;2.90;;;;;;;30.32;27.27;97899.88;8429497;28;20199;-74
2021/06/16 10:48:55;;;;;;;5.33;2.67;;;;;;;31.06;25.65;97900.28;8448966;28;20231;-72
2021/06/16 10:53:05;;;;;;;4.90;3.07;;;;;;;31.67;24.39;97902.88;8422411;28;20198;-73
2021/06/16 10:57:10;;;;;;;6.57;3.10;;;;;;;32.18;25.36;97885.41;8420872;28;20509;-74
2021/06/16 11:01:15;;;;;;;13.83;4.13;;;;;;;31.56;26.38;97890.13;8420486;28;20217;-65
2021/06/16 11:05:19;;;;;;;7.07;3.20;;;;;;;31.42;26.14;97886.56;8420140;28;20552;-65
2021/06/16 11:09:51;;;;;;;6.87;3.70;;;;;;;31.67;26.42;97888.69;8420210;28;20243;-65
2021/06/16 11:13:56;;;;;;;6.30;3.60;;;;;;;31.99;25.63;97878.16;8420070;28;20215;-65
2021/06/16 11:17:59;;;;;;;4.77;3.23;;;;;;;32.14;25.44;97874.28;8420068;28;20512;-65
2021/06/16 11:22:05;;;;;;;7.07;3.20;;;;;;;31.75;24.93;97873.22;8419979;28;20208;-65
2021/06/16 11:26:07;;;;;;;5.67;3.07;;;;;;;32.43;25.71;97865.97;8419929;28;20201;-65
2021/06/16 11:30:14;;;;;;;7.03;3.37;;;;;;;32.75;26.47;97863.41;8419902;28;20524;-65
2021/06/16 11:34:50;;;;;;;7.33;3.40;;;;;;;32.78;23.79;97860.31;8419461;28;20373;-65
2021/06/16 11:38:55;;;;;;;3.50;3.20;;;;;;;32.50;25.13;97856.88;8419759;28;20204;-65
2021/06/16 11:42:58;;;;;;;4.63;2.77;;;;;;;32.80;23.90;97853.69;8420162;28;20209;-65
2021/06/16 11:47:03;;;;;;;7.23;3.00;;;;;;;32.71;23.71;97849.59;8452794;28;20207;-64
2021/06/16 11:51:07;;;;;;;6.97;2.90;;;;;;;33.18;23.61;97847.53;8452395;28;20295;-64
2021/06/16 11:55:10;;;;;;;4.67;2.90;;;;;;;33.34;23.72;97837.31;8452292;28;20209;-64
2021/06/16 11:59:14;;;;;;;6.17;3.00;;;;;;;33.28;23.86;97833.63;8452179;28;20203;-64
2021/06/16 12:03:18;;;;;;;5.30;3.20;;;;;;;32.96;24.15;97838.97;8452400;28;20385;-64
2021/06/16 12:07:29;;;;;;;5.77;3.03;;;;;;;32.99;23.89;97825.13;8452358;28;20233;-64
2021/06/16 12:11:36;;;;;;;3.87;3.00;;;;;;;32.81;24.75;97827.72;8451993;28;20245;-64
2021/06/16 12:15:41;;;;;;;4.27;3.10;;;;;;;33.03;24.17;97829.00;8451990;28;20206;-64
2021/06/16 12:19:45;;;;;;;9.57;2.97;;;;;;;32.67;23.85;97821.56;8451843;28;20507;-64
2021/06/16 12:23:48;;;;;;;5.87;2.93;;;;;;;33.27;23.52;97821.28;8451636;28;20343;-64
2021/06/16 12:27:50;;;;;;;5.63;3.17;;;;;;;33.31;23.78;97815.25;8451598;28;20203;-64
2021/06/16 12:31:55;;;;;;;4.67;2.93;;;;;;;33.37;23.75;97800.13;8451147;28;20558;-64
2021/06/16 12:36:06;;;;;;;4.63;2.70;;;;;;;33.47;23.31;97805.00;8451317;28;20201;-64
2021/06/16 12:40:32;;;;;;;6.60;3.00;;;;;;;33.24;22.96;97805.59;8451067;28;20205;-64
2021/06/16 12:44:41;;;;;;;7.30;3.00;;;;;;;32.95;23.17;97798.97;8450780;28;20295;-64
2021/06/16 12:48:44;;;;;;;4.60;3.00;;;;;;;32.97;24.44;97794.19;8450763;28;20565;-64
2021/06/16 12:52:48;;;;;;;5.23;3.27;;;;;;;33.22;23.69;97791.56;8450653;28;20205;-64
2021/06/16 12:57:05;;;;;;;6.50;3.30;;;;;;;33.51;23.51;97795.50;8450493;28;20206;-64
2021/06/16 13:01:16;;;;;;;5.10;2.97;;;;;;;32.63;23.70;97790.88;8450104;28;20189;-64
2021/06/16 13:05:26;;;;;;;4.67;3.20;;;;;;;33.34;24.31;97786.31;8450613;28;20228;-64
2021/06/16 13:09:30;;;;;;;8.33;2.90;;;;;;;33.16;25.48;97787.91;8450153;28;20232;-64
2021/06/16 13:13:33;;;;;;;3.23;2.50;;;;;;;33.26;24.73;97771.31;8449562;28;20415;-72
2021/06/16 13:17:46;;;;;;;3.77;2.73;;;;;;;33.38;24.88;97774.94;8419432;28;20511;-71
2021/06/16 13:21:58;;;;;;;6.03;2.93;;;;;;;32.73;25.50;97775.97;8416147;28;20205;-71
2021/06/16 13:26:09;;;;;;;5.30;3.27;;;;;;;32.49;25.20;97776.69;8416307;28;20223;-71
2021/06/16 13:30:13;;;;;;;5.83;3.17;;;;;;;32.35;25.55;97778.63;8416340;28;20231;-73
2021/06/16 13:34:17;;;;;;;11.77;3.40;;;;;;;32.14;24.57;97775.19;8416622;28;20339;-72
2021/06/16 13:38:19;;;;;;;4.30;3.13;;;;;;;32.51;25.10;97772.75;8416145;28;20201;-72
2021/06/16 13:42:23;;;;;;;6.60;2.80;;;;;;;32.78;24.28;97769.97;8416429;28;20202;-72
2021/06/16 13:46:26;;;;;;;5.07;2.63;;;;;;;32.86;23.50;97767.03;8434348;28;20515;-71
2021/06/16 13:50:29;;;;;;;6.57;2.73;;;;;;;32.78;24.18;97774.50;8398559;28;20607;-71
2021/06/16 13:54:32;;;;;;;4.97;3.10;;;;;;;32.57;23.97;97759.56;8403774;28;20193;-70
2021/06/16 13:58:36;;;;;;;5.40;3.17;;;;;;;32.32;24.61;97758.41;8398373;28;20209;-71
2021/06/16 14:02:39;;;;;;;6.60;2.90;;;;;;;31.85;24.57;97756.88;8404375;28;20204;-72
2021/06/16 14:06:42;;;;;;;7.90;3.00;;;;;;;31.53;25.02;97748.72;8407262;28;20228;-70
2021/06/16 14:10:45;;;;;;;3.80;2.60;;;;;;;32.06;25.63;97743.28;8403604;28;20242;-69
2021/06/16 14:14:50;;;;;;;8.60;2.90;;;;;;;31.75;25.28;97750.09;8394747;28;20203;-69
2021/06/16 14:18:52;;;;;;;3.60;2.77;;;;;;;32.00;25.36;97753.97;8390106;28;20202;-69
2021/06/16 14:22:55;;;;;;;4.97;2.53;;;;;;;31.21;24.60;97753.84;8392331;28;20266;-70
2021/06/16 14:26:58;;;;;;;4.60;2.60;;;;;;;31.26;24.41;97746.00;8398984;28;20494;-68
2021/06/16 14:31:02;;;;;;;4.87;2.50;;;;;;;31.32;24.48;97744.34;8405632;28;20392;-71
2021/06/16 14:35:07;;;;;;;6.73;2.60;;;;;;;31.15;24.30;97746.63;8403580;28;20203;-69
2021/06/16 14:39:10;;;;;;;3.03;2.40;;;;;;;31.03;24.57;97741.06;8399015;28;20199;-69
2021/06/16 14:43:12;;;;;;;4.10;2.40;;;;;;;31.07;24.53;97746.81;8394622;28;20194;-70
2021/06/16 14:47:19;;;;;;;3.43;2.50;;;;;;;31.14;24.09;97732.41;8421140;28;20199;-65
2021/06/16 14:51:22;;;;;;;4.97;2.30;;;;;;;31.11;23.96;97738.19;8420804;28;20234;-64
2021/06/16 14:55:25;;;;;;;4.20;2.50;;;;;;;31.11;24.04;97740.88;8401227;28;20199;-64
2021/06/16 14:59:29;;;;;;;3.80;2.27;;;;;;;31.15;23.02;97736.75;8392112;28;20208;-66
2021/06/16 15:03:33;;;;;;;5.17;2.40;;;;;;;31.28;23.71;97737.78;8391284;28;20202;-64
2021/06/16 15:07:36;;;;;;;5.53;2.20;;;;;;;31.53;24.23;97725.44;8388404;28;20213;-64
2021/06/16 15:11:40;;;;;;;3.70;2.23;;;;;;;31.63;23.25;97722.34;8379542;28;20233;-65
2021/06/16 15:15:45;;;;;;;3.97;2.50;;;;;;;31.53;23.35;97720.09;8386024;28;20198;-65
2021/06/16 15:19:49;;;;;;;3.00;2.10;;;;;;;31.60;23.72;97721.94;8386712;28;20203;-65
2021/06/16 15:23:52;;;;;;;5.67;2.43;;;;;;;31.42;23.83;97712.66;8388580;28;20212;-66
2021/06/16 15:27:55;;;;;;;4.77;2.40;;;;;;;31.47;23.76;97706.72;8408315;28;20206;-64
2021/06/16 15:31:58;;;;;;;4.63;2.20;;;;;;;31.45;23.30;97708.75;8385595;28;20421;-65
2021/06/16 15:36:02;;;;;;;3.73;2.10;;;;;;;31.27;23.24;97704.03;8385076;28;20206;-65
2021/06/16 15:40:08;;;;;;;4.07;2.13;;;;;;;31.38;24.48;97712.25;8385882;28;20196;-64
2021/06/16 15:44:10;;;;;;;4.87;2.30;;;;;;;31.37;23.98;97702.56;8385760;28;20196;-65
2021/06/16 15:48:14;;;;;;;4.10;2.47;;;;;;;31.21;24.06;97704.88;8385370;28;20197;-65
2021/06/16 15:52:20;;;;;;;5.33;3.60;;;;;;;31.05;24.18;97701.56;8385925;28;20294;-65
2021/06/16 15:56:22;;;;;;;3.93;2.37;;;;;;;31.11;24.77;97699.91;8385716;28;20200;-65
2021/06/16 16:00:26;;;;;;;4.17;3.00;;;;;;;31.22;24.13;97690.47;8385592;28;20200;-65
2021/06/16 16:04:28;;;;;;;7.27;2.63;;;;;;;30.83;23.75;97705.44;8385574;28;20208;-64
2021/06/16 16:08:33;;;;;;;4.70;2.50;;;;;;;31.05;24.03;97695.41;8384302;28;20220;-65
2021/06/16 16:12:36;;;;;;;5.53;2.20;;;;;;;31.14;24.75;97694.16;8368243;28;20530;-64
2021/06/16 16:16:39;;;;;;;3.17;2.33;;;;;;;31.10;26.56;97699.09;8367620;28;20600;-64
2021/06/16 16:20:44;;;;;;;7.00;2.57;;;;;;;30.87;25.02;97688.78;8367362;28;20268;-64
2021/06/16 16:24:48;;;;;;;3.30;2.53;;;;;;;30.86;25.52;97687.13;8371987;28;20211;-65
2021/06/16 16:28:51;;;;;;;4.17;2.47;;;;;;;30.85;26.17;97698.03;8367316;28;20386;-64
2021/06/16 16:32:54;;;;;;;5.20;2.40;;;;;;;30.44;25.08;97693.63;8367257;28;20225;-64
2021/06/16 16:36:57;;;;;;;4.13;2.67;;;;;;;30.40;25.48;97694.03;8367416;28;20195;-64
2021/06/16 16:41:01;;;;;;;3.27;2.27;;;;;;;30.23;24.93;97692.72;8367273;28;20203;-64
2021/06/16 16:45:05;;;;;;;9.80;2.20;;;;;;;30.38;25.00;97693.41;8367015;28;20195;-70
2021/06/16 16:49:09;;;;;;;2.83;2.07;;;;;;;30.38;24.74;97684.59;8357629;28;20207;-67
2021/06/16 16:53:12;;;;;;;4.33;2.40;;;;;;;30.14;25.83;97677.88;8365809;28;20244;-66
2021/06/16 16:57:16;;;;;;;3.37;2.10;;;;;;;30.10;25.37;97674.81;8366554;28;20509;-66
2021/06/16 17:01:19;;;;;;;3.63;2.20;;;;;;;30.07;25.22;97679.75;8366293;28;20200;-66
2021/06/16 17:05:22;;;;;;;2.47;1.93;;;;;;;30.01;25.16;97671.50;8366187;28;20212;-66
2021/06/16 17:09:25;;;;;;;4.70;2.00;;;;;;;29.95;24.95;97672.31;8373926;28;20545;-66
2021/06/16 17:13:30;;;;;;;4.20;2.20;;;;;;;29.87;24.54;97675.13;8391746;28;20222;-66
2021/06/16 17:17:32;;;;;;;6.47;2.23;;;;;;;29.78;24.92;97673.66;8388004;28;20199;-67
2021/06/16 17:21:35;;;;;;;3.30;2.20;;;;;;;29.62;24.71;97682.75;8382681;28;20208;-67
2021/06/16 17:25:38;;;;;;;3.87;2.40;;;;;;;29.62;25.34;97675.59;8411059;28;20217;-66
2021/06/16 17:29:42;;;;;;;3.90;2.60;;;;;;;29.69;25.57;97678.28;8449602;28;20202;-67
2021/06/16 17:33:45;;;;;;;11.20;2.90;;;;;;;29.51;27.99;97677.97;8449599;28;20226;-67
2021/06/16 17:37:48;;;;;;;3.23;2.57;;;;;;;29.49;28.70;97670.16;8432928;28;20493;-66
2021/06/16 17:41:51;;;;;;;5.87;3.00;;;;;;;29.35;29.56;97677.25;8416006;28;20207;-66
2021/06/16 17:45:55;;;;;;;7.70;3.20;;;;;;;29.23;30.11;97674.31;8415980;28;20205;-66
2021/06/16 17:49:58;;;;;;;6.17;3.00;;;;;;;29.22;30.47;97677.97;8415794;28;20525;-66
2021/06/16 17:54:00;;;;;;;4.70;3.10;;;;;;;29.15;30.55;97682.47;8393228;28;20223;-66
2021/06/16 17:58:04;;;;;;;7.30;2.93;;;;;;;29.17;30.85;97685.75;8415524;28;20391;-66
2021/06/16 18:02:08;;;;;;;6.17;2.90;;;;;;;28.87;30.89;97679.75;8422582;28;20502;-66
2021/06/16 18:06:11;;;;;;;4.00;3.00;;;;;;;28.84;30.67;97677.44;8422366;28;20226;-66
2021/06/16 18:10:15;;;;;;;8.37;3.37;;;;;;;28.77;31.04;97685.41;8405922;28;20446;-66
2021/06/16 18:14:18;;;;;;;4.97;2.73;;;;;;;28.72;31.09;97689.66;8388007;28;20201;-66
2021/06/16 18:18:22;;;;;;;10.40;3.07;;;;;;;28.57;31.37;97687.03;8388012;28;20193;-66
2021/06/16 18:22:24;;;;;;;6.37;3.00;;;;;;;28.56;31.33;97682.72;8387988;28;20209;-66
2021/06/16 18:26:27;;;;;;;4.03;2.90;;;;;;;28.55;31.34;97683.75;8389418;28;20209;-66
2021/06/16 18:30:31;;;;;;;5.47;2.63;;;;;;;28.54;31.63;97690.06;8387606;28;20197;-66
2021/06/16 18:34:35;;;;;;;8.23;2.97;;;;;;;28.41;31.75;97690.75;8385995;28;20519;-66
2021/06/16 18:38:41;;;;;;;8.57;3.03;;;;;;;28.33;31.78;97694.34;8388207;28;20515;-66
2021/06/16 18:42:46;;;;;;;7.43;2.97;;;;;;;28.30;32.54;97691.22;8388258;28;20496;-66
2021/06/16 18:46:49;;;;;;;4.53;3.27;;;;;;;28.19;33.04;97688.03;8388014;28;20392;-66
2021/06/16 18:50:54;;;;;;;6.50;3.30;;;;;;;28.09;33.30;97698.16;8387879;28;20246;-66
2021/06/16 18:54:56;;;;;;;6.93;3.80;;;;;;;28.05;33.34;97694.22;8387980;28;20210;-66
2021/06/16 18:58:59;;;;;;;4.67;3.43;;;;;;;28.08;33.28;97699.16;8387501;28;20380;-65
2021/06/16 19:03:10;;;;;;;4.80;3.23;;;;;;;28.05;33.72;97697.69;8387607;28;20524;-66
2021/06/16 19:07:15;;;;;;;8.40;3.60;;;;;;;27.86;33.90;97701.72;8387662;28;20222;-66